createdAt,value
2018-05-19T00:00:06.897Z,0.00
2018-05-19T00:00:44.549Z,0.00
2018-05-19T00:01:19.806Z,0.00
2018-05-19T00:01:55.335Z,0.00
2018-05-19T00:02:30.769Z,0.00
2018-05-19T00:03:06.148Z,0.00
2018-05-19T00:03:41.795Z,0.00
2018-05-19T00:04:17.524Z,0.00
2018-05-19T00:04:52.989Z,0.00
2018-05-19T00:05:28.644Z,0.00
2018-05-19T00:06:03.947Z,0.00
2018-05-19T00:06:39.414Z,0.00
2018-05-19T00:07:14.547Z,0.00
2018-05-19T00:07:49.976Z,0.00
2018-05-19T00:08:25.494Z,0.00
2018-05-19T00:09:00.893Z,0.00
2018-05-19T00:09:36.235Z,0.00
2018-05-19T00:10:11.857Z,0.00
2018-05-19T00:10:47.629Z,0.00
2018-05-19T00:11:22.986Z,0.00
2018-05-19T00:11:58.657Z,0.00
2018-05-19T00:12:33.820Z,0.00
2018-05-19T00:13:09.392Z,0.00
2018-05-19T00:13:44.842Z,0.00
2018-05-19T00:14:20.134Z,0.00
2018-05-19T00:14:55.656Z,0.00
2018-05-19T00:15:30.735Z,0.00
2018-05-19T00:16:06.617Z,0.00
2018-05-19T00:16:42.289Z,0.00
2018-05-19T00:17:17.929Z,0.00
2018-05-19T00:17:53.526Z,0.00
2018-05-19T00:18:28.961Z,0.00
2018-05-19T00:19:04.285Z,0.00
2018-05-19T00:19:39.615Z,0.00
2018-05-19T00:20:15.346Z,0.00
2018-05-19T00:20:51.660Z,0.00
2018-05-19T00:21:27.104Z,0.00
2018-05-19T00:22:02.706Z,0.00
2018-05-19T00:22:38.334Z,0.00
2018-05-19T00:23:13.529Z,0.00
2018-05-19T00:23:48.814Z,0.00
2018-05-19T00:24:24.283Z,0.00
2018-05-19T00:24:59.804Z,0.00
2018-05-19T00:25:35.176Z,0.00
2018-05-19T00:26:10.527Z,0.00
2018-05-19T00:26:46.099Z,0.00
2018-05-19T00:27:21.505Z,0.00
2018-05-19T00:27:56.826Z,0.00
2018-05-19T00:28:32.237Z,0.00
2018-05-19T00:29:07.247Z,0.00
2018-05-19T00:29:42.615Z,0.00
2018-05-19T00:30:18.209Z,0.00
2018-05-19T00:30:53.380Z,0.00
2018-05-19T00:31:28.731Z,0.00
2018-05-19T00:32:04.518Z,0.00
2018-05-19T00:32:39.896Z,0.00
2018-05-19T00:33:15.211Z,0.00
2018-05-19T00:33:50.526Z,0.00
2018-05-19T00:34:26.088Z,0.00
2018-05-19T00:35:01.567Z,0.00
2018-05-19T00:35:37.011Z,0.00
2018-05-19T00:36:12.336Z,0.00
2018-05-19T00:36:47.710Z,0.00
2018-05-19T00:37:22.912Z,0.00
2018-05-19T00:37:58.314Z,0.00
2018-05-19T00:38:33.801Z,0.00
2018-05-19T00:39:09.105Z,0.00
2018-05-19T00:39:44.631Z,0.00
2018-05-19T00:40:19.835Z,0.00
2018-05-19T00:40:55.530Z,0.00
2018-05-19T00:41:31.200Z,0.00
2018-05-19T00:42:06.527Z,0.00
2018-05-19T00:42:41.844Z,0.00
2018-05-19T00:43:17.039Z,0.00
2018-05-19T00:43:52.683Z,0.00
2018-05-19T00:44:28.420Z,0.00
2018-05-19T00:45:03.774Z,0.00
2018-05-19T00:45:39.186Z,0.00
2018-05-19T00:46:14.596Z,0.00
2018-05-19T00:46:50.079Z,0.00
2018-05-19T00:47:25.907Z,0.00
2018-05-19T00:48:01.099Z,0.00
2018-05-19T00:48:36.559Z,0.00
2018-05-19T00:49:11.869Z,0.00
2018-05-19T00:49:47.239Z,0.00
2018-05-19T00:50:22.671Z,0.00
2018-05-19T00:50:58.103Z,0.00
2018-05-19T00:51:33.424Z,0.00
2018-05-19T00:52:08.890Z,0.00
2018-05-19T00:52:44.057Z,0.00
2018-05-19T00:53:19.332Z,0.00
2018-05-19T00:53:54.977Z,0.00
2018-05-19T00:54:30.712Z,0.00
2018-05-19T00:55:06.259Z,0.00
2018-05-19T00:55:41.386Z,0.00
2018-05-19T00:56:16.727Z,0.00
2018-05-19T00:56:52.178Z,0.00
2018-05-19T00:57:27.460Z,0.00
2018-05-19T00:58:02.909Z,0.00
2018-05-19T00:58:38.320Z,0.00
2018-05-19T00:59:13.512Z,0.00
2018-05-19T00:59:49.195Z,0.00
2018-05-19T01:00:24.802Z,0.00
2018-05-19T01:01:00.331Z,0.00
2018-05-19T01:01:35.692Z,0.00
2018-05-19T01:02:10.904Z,0.00
2018-05-19T01:02:46.317Z,0.00
2018-05-19T01:03:21.823Z,0.00
2018-05-19T01:03:57.189Z,0.00
2018-05-19T01:04:32.508Z,0.00
2018-05-19T01:05:07.870Z,0.00
2018-05-19T01:05:44.526Z,0.00
2018-05-19T01:06:19.627Z,0.00
2018-05-19T01:06:54.938Z,0.00
2018-05-19T01:07:30.161Z,0.00
2018-05-19T01:08:05.754Z,0.00
2018-05-19T01:08:41.039Z,0.00
2018-05-19T01:09:16.712Z,0.00
2018-05-19T01:09:52.022Z,0.00
2018-05-19T01:10:27.230Z,0.00
2018-05-19T01:11:03.399Z,0.00
2018-05-19T01:11:38.796Z,0.00
2018-05-19T01:12:14.266Z,0.00
2018-05-19T01:12:49.807Z,0.00
2018-05-19T01:13:25.114Z,0.00
2018-05-19T01:14:00.462Z,0.00
2018-05-19T01:14:35.833Z,0.00
2018-05-19T01:15:11.220Z,0.00
2018-05-19T01:15:46.532Z,0.00
2018-05-19T01:16:21.963Z,0.00
2018-05-19T01:16:57.356Z,0.00
2018-05-19T01:17:32.876Z,0.00
2018-05-19T01:18:08.421Z,0.00
2018-05-19T01:18:44.003Z,0.00
2018-05-19T01:19:19.581Z,0.00
2018-05-19T01:19:55.570Z,0.00
2018-05-19T01:20:30.957Z,0.00
2018-05-19T01:21:06.349Z,0.00
2018-05-19T01:21:41.792Z,0.00
2018-05-19T01:22:17.184Z,0.00
2018-05-19T01:22:52.823Z,0.00
2018-05-19T01:23:28.060Z,0.00
2018-05-19T01:24:03.580Z,0.00
2018-05-19T01:24:38.843Z,0.00
2018-05-19T01:25:14.124Z,0.00
2018-05-19T01:25:49.404Z,0.00
2018-05-19T01:26:24.808Z,0.00
2018-05-19T01:27:00.361Z,0.00
2018-05-19T01:27:36.001Z,0.00
2018-05-19T01:28:11.261Z,0.00
2018-05-19T01:28:46.669Z,0.00
2018-05-19T01:29:22.081Z,0.00
2018-05-19T01:29:57.487Z,0.00
2018-05-19T01:30:32.959Z,0.00
2018-05-19T01:31:08.321Z,0.00
2018-05-19T01:31:43.620Z,0.00
2018-05-19T01:32:18.984Z,0.00
2018-05-19T01:32:54.613Z,0.00
2018-05-19T01:33:29.736Z,0.00
2018-05-19T01:34:05.022Z,0.00
2018-05-19T01:34:43.566Z,0.00
2018-05-19T01:35:18.965Z,0.00
2018-05-19T01:35:54.391Z,0.00
2018-05-19T01:36:29.797Z,0.00
2018-05-19T01:37:04.938Z,0.00
2018-05-19T01:37:40.267Z,0.00
2018-05-19T01:38:15.846Z,0.00
2018-05-19T01:38:51.123Z,0.00
2018-05-19T01:39:26.590Z,0.00
2018-05-19T01:40:02.087Z,0.00
2018-05-19T01:40:39.818Z,0.00
2018-05-19T01:41:15.175Z,0.00
2018-05-19T01:41:50.585Z,0.00
2018-05-19T01:42:25.811Z,0.00
2018-05-19T01:43:01.232Z,0.00
2018-05-19T01:43:36.572Z,0.00
2018-05-19T01:44:11.890Z,0.00
2018-05-19T01:44:47.352Z,0.00
2018-05-19T01:45:22.402Z,0.00
2018-05-19T01:45:57.906Z,0.00
2018-05-19T01:46:33.308Z,0.00
2018-05-19T01:47:08.469Z,0.00
2018-05-19T01:47:43.870Z,0.00
2018-05-19T01:48:19.526Z,0.00
2018-05-19T01:48:54.868Z,0.00
2018-05-19T01:49:30.252Z,0.00
2018-05-19T01:50:05.651Z,0.00
2018-05-19T01:50:41.074Z,0.00
2018-05-19T01:51:16.247Z,0.00
2018-05-19T01:51:51.635Z,0.00
2018-05-19T01:52:27.189Z,0.00
2018-05-19T01:53:02.591Z,0.00
2018-05-19T01:53:38.134Z,0.00
2018-05-19T01:54:13.533Z,0.00
2018-05-19T01:54:48.841Z,0.00
2018-05-19T01:55:24.133Z,0.00
2018-05-19T01:55:59.507Z,0.00
2018-05-19T01:56:34.867Z,0.00
2018-05-19T01:57:10.272Z,0.00
2018-05-19T01:57:45.797Z,0.00
2018-05-19T01:58:21.288Z,0.00
2018-05-19T01:58:56.661Z,0.00
2018-05-19T01:59:32.205Z,0.00
2018-05-19T02:00:08.137Z,0.00
2018-05-19T02:00:43.318Z,0.00
2018-05-19T02:01:18.673Z,0.00
2018-05-19T02:01:54.362Z,0.00
2018-05-19T02:02:29.835Z,0.00
2018-05-19T02:03:05.386Z,0.00
2018-05-19T02:03:40.487Z,0.00
2018-05-19T02:04:15.739Z,0.00
2018-05-19T02:04:51.219Z,0.00
2018-05-19T02:05:26.602Z,0.00
2018-05-19T02:06:01.957Z,0.00
2018-05-19T02:06:37.208Z,0.00
2018-05-19T02:07:12.690Z,0.00
2018-05-19T02:07:48.054Z,0.00
2018-05-19T02:08:23.515Z,0.00
2018-05-19T02:08:58.778Z,0.00
2018-05-19T02:09:34.178Z,0.00
2018-05-19T02:10:10.033Z,0.00
2018-05-19T02:10:45.411Z,0.00
2018-05-19T02:11:20.686Z,0.00
2018-05-19T02:11:56.151Z,0.00
2018-05-19T02:12:31.578Z,0.00
2018-05-19T02:13:06.789Z,0.00
2018-05-19T02:13:42.392Z,0.00
2018-05-19T02:14:18.073Z,0.00
2018-05-19T02:14:53.562Z,0.00
2018-05-19T02:15:29.041Z,0.00
2018-05-19T02:16:04.259Z,0.00
2018-05-19T02:16:39.752Z,0.00
2018-05-19T02:17:15.106Z,0.00
2018-05-19T02:17:50.528Z,0.00
2018-05-19T02:18:25.972Z,0.00
2018-05-19T02:19:01.567Z,0.00
2018-05-19T02:19:37.117Z,0.00
2018-05-19T02:20:12.364Z,0.00
2018-05-19T02:20:47.852Z,0.00
2018-05-19T02:21:23.188Z,0.00
2018-05-19T02:21:58.866Z,0.00
2018-05-19T02:22:33.958Z,0.00
2018-05-19T02:23:09.038Z,0.00
2018-05-19T02:23:44.507Z,0.00
2018-05-19T02:24:20.195Z,0.00
2018-05-19T02:24:55.439Z,0.00
2018-05-19T02:25:30.658Z,0.00
2018-05-19T02:26:06.252Z,0.00
2018-05-19T02:26:41.486Z,0.00
2018-05-19T02:27:17.068Z,0.00
2018-05-19T02:27:52.443Z,0.00
2018-05-19T02:28:27.812Z,0.00
2018-05-19T02:29:03.151Z,0.00
2018-05-19T02:29:38.602Z,0.00
2018-05-19T02:30:13.929Z,0.00
2018-05-19T02:30:49.706Z,0.00
2018-05-19T02:31:25.153Z,0.00
2018-05-19T02:32:00.499Z,0.00
2018-05-19T02:32:35.796Z,0.00
2018-05-19T02:33:11.239Z,0.00
2018-05-19T02:33:46.685Z,0.00
2018-05-19T02:34:22.085Z,0.00
2018-05-19T02:34:57.409Z,0.00
2018-05-19T02:35:32.556Z,0.00
2018-05-19T02:36:07.976Z,0.00
2018-05-19T02:36:43.500Z,0.00
2018-05-19T02:37:18.867Z,0.00
2018-05-19T02:37:54.234Z,0.00
2018-05-19T02:38:29.611Z,0.00
2018-05-19T02:39:05.019Z,0.00
2018-05-19T02:39:40.231Z,0.00
2018-05-19T02:40:15.642Z,0.00
2018-05-19T02:40:51.067Z,0.00
2018-05-19T02:41:26.368Z,0.00
2018-05-19T02:42:01.515Z,0.00
2018-05-19T02:42:36.770Z,0.00
2018-05-19T02:43:12.368Z,0.00
2018-05-19T02:43:47.679Z,0.00
2018-05-19T02:44:23.135Z,0.00
2018-05-19T02:44:58.598Z,0.00
2018-05-19T02:45:33.941Z,0.00
2018-05-19T02:46:09.263Z,0.00
2018-05-19T02:46:44.666Z,0.00
2018-05-19T02:47:20.405Z,0.00
2018-05-19T02:47:56.000Z,0.00
2018-05-19T02:48:31.458Z,0.00
2018-05-19T02:49:06.743Z,0.00
2018-05-19T02:49:42.112Z,0.00
2018-05-19T02:50:17.482Z,0.00
2018-05-19T02:50:52.854Z,0.00
2018-05-19T02:51:28.348Z,0.00
2018-05-19T02:52:03.682Z,0.00
2018-05-19T02:52:38.865Z,0.00
2018-05-19T02:53:14.129Z,0.00
2018-05-19T02:53:49.427Z,0.00
2018-05-19T02:54:24.501Z,0.00
2018-05-19T02:54:59.931Z,0.00
2018-05-19T02:55:35.193Z,0.00
2018-05-19T02:56:10.700Z,4.00
2018-05-19T02:56:45.916Z,4.00
2018-05-19T02:57:21.218Z,4.00
2018-05-19T02:57:56.505Z,4.00
2018-05-19T02:58:32.359Z,0.00
2018-05-19T02:59:07.827Z,0.00
2018-05-19T02:59:43.480Z,4.00
2018-05-19T03:00:18.912Z,4.00
2018-05-19T03:00:55.410Z,4.00
2018-05-19T03:01:30.759Z,4.00
2018-05-19T03:02:06.134Z,4.00
2018-05-19T03:02:41.609Z,4.00
2018-05-19T03:03:16.947Z,4.00
2018-05-19T03:03:52.571Z,4.00
2018-05-19T03:04:27.902Z,4.00
2018-05-19T03:05:03.153Z,8.00
2018-05-19T03:05:38.590Z,8.00
2018-05-19T03:06:14.025Z,4.00
2018-05-19T03:06:49.211Z,8.00
2018-05-19T03:07:24.368Z,8.00
2018-05-19T03:07:59.580Z,8.00
2018-05-19T03:08:35.048Z,12.00
2018-05-19T03:09:10.493Z,8.00
2018-05-19T03:09:46.050Z,12.00
2018-05-19T03:10:21.764Z,12.00
2018-05-19T03:10:57.236Z,12.00
2018-05-19T03:11:32.791Z,16.00
2018-05-19T03:12:07.888Z,12.00
2018-05-19T03:12:43.053Z,16.00
2018-05-19T03:13:18.417Z,16.00
2018-05-19T03:13:53.694Z,20.00
2018-05-19T03:14:29.266Z,20.00
2018-05-19T03:15:05.034Z,20.00
2018-05-19T03:15:40.475Z,24.00
2018-05-19T03:16:15.958Z,24.00
2018-05-19T03:16:51.417Z,24.00
2018-05-19T03:17:26.915Z,24.00
2018-05-19T03:18:02.355Z,28.00
2018-05-19T03:18:37.834Z,28.00
2018-05-19T03:19:13.356Z,28.00
2018-05-19T03:19:49.052Z,36.00
2018-05-19T03:20:24.681Z,36.00
2018-05-19T03:20:59.863Z,36.00
2018-05-19T03:21:35.016Z,36.00
2018-05-19T03:22:10.323Z,40.00
2018-05-19T03:22:45.742Z,44.00
2018-05-19T03:23:21.235Z,44.00
2018-05-19T03:23:56.462Z,48.00
2018-05-19T03:24:31.658Z,52.00
2018-05-19T03:25:07.098Z,56.00
2018-05-19T03:25:42.655Z,56.00
2018-05-19T03:26:18.220Z,60.00
2018-05-19T03:26:53.804Z,64.00
2018-05-19T03:27:29.349Z,64.00
2018-05-19T03:28:04.602Z,72.00
2018-05-19T03:28:40.124Z,72.00
2018-05-19T03:29:15.450Z,76.00
2018-05-19T03:29:50.983Z,80.00
2018-05-19T03:30:26.481Z,84.00
2018-05-19T03:31:02.166Z,88.00
2018-05-19T03:31:37.452Z,92.00
2018-05-19T03:32:13.224Z,96.00
2018-05-19T03:32:48.599Z,100.00
2018-05-19T03:33:24.021Z,108.00
2018-05-19T03:33:59.385Z,112.00
2018-05-19T03:34:35.064Z,120.00
2018-05-19T03:35:10.632Z,128.00
2018-05-19T03:35:45.999Z,132.00
2018-05-19T03:36:21.529Z,136.00
2018-05-19T03:36:57.010Z,140.00
2018-05-19T03:37:32.279Z,144.00
2018-05-19T03:38:07.840Z,148.00
2018-05-19T03:38:43.413Z,156.00
2018-05-19T03:39:18.970Z,160.00
2018-05-19T03:39:54.514Z,164.00
2018-05-19T03:40:29.935Z,168.00
2018-05-19T03:41:05.627Z,176.00
2018-05-19T03:41:41.218Z,180.00
2018-05-19T03:42:16.675Z,188.00
2018-05-19T03:42:51.991Z,192.00
2018-05-19T03:43:27.325Z,200.00
2018-05-19T03:44:02.649Z,212.00
2018-05-19T03:44:37.966Z,220.00
2018-05-19T03:45:13.462Z,232.00
2018-05-19T03:45:48.609Z,236.00
2018-05-19T03:46:23.881Z,244.00
2018-05-19T03:46:59.202Z,252.00
2018-05-19T03:47:34.619Z,264.00
2018-05-19T03:48:09.869Z,272.00
2018-05-19T03:48:45.125Z,276.00
2018-05-19T03:49:20.781Z,284.00
2018-05-19T03:49:56.344Z,288.00
2018-05-19T03:50:31.745Z,296.00
2018-05-19T03:51:07.089Z,304.00
2018-05-19T03:51:43.461Z,316.00
2018-05-19T03:52:19.214Z,328.00
2018-05-19T03:52:54.594Z,340.00
2018-05-19T03:53:29.846Z,348.00
2018-05-19T03:54:05.199Z,360.00
2018-05-19T03:54:40.678Z,372.00
2018-05-19T03:55:16.120Z,380.00
2018-05-19T03:55:51.617Z,392.00
2018-05-19T03:56:26.752Z,404.00
2018-05-19T03:57:02.175Z,416.00
2018-05-19T03:57:37.651Z,424.00
2018-05-19T03:58:13.228Z,432.00
2018-05-19T03:58:48.394Z,436.00
2018-05-19T03:59:23.783Z,444.00
2018-05-19T03:59:59.039Z,444.00
2018-05-19T04:00:34.376Z,452.00
2018-05-19T04:01:09.394Z,460.00
2018-05-19T04:01:44.766Z,472.00
2018-05-19T04:02:19.958Z,480.00
2018-05-19T04:02:55.527Z,488.00
2018-05-19T04:03:30.990Z,492.00
2018-05-19T04:04:06.352Z,496.00
2018-05-19T04:04:41.601Z,496.00
2018-05-19T04:05:17.523Z,500.00
2018-05-19T04:05:53.331Z,508.00
2018-05-19T04:06:28.753Z,520.00
2018-05-19T04:07:03.880Z,536.00
2018-05-19T04:07:39.273Z,556.00
2018-05-19T04:08:15.052Z,572.00
2018-05-19T04:08:50.342Z,588.00
2018-05-19T04:09:25.893Z,600.00
2018-05-19T04:10:01.401Z,616.00
2018-05-19T04:10:36.860Z,628.00
2018-05-19T04:11:12.032Z,644.00
2018-05-19T04:11:47.589Z,652.00
2018-05-19T04:12:22.927Z,664.00
2018-05-19T04:12:58.440Z,672.00
2018-05-19T04:13:33.866Z,680.00
2018-05-19T04:14:09.542Z,680.00
2018-05-19T04:14:45.072Z,680.00
2018-05-19T04:15:20.480Z,680.00
2018-05-19T04:15:56.209Z,676.00
2018-05-19T04:16:31.609Z,672.00
2018-05-19T04:17:06.872Z,672.00
2018-05-19T04:17:42.025Z,672.00
2018-05-19T04:18:17.302Z,676.00
2018-05-19T04:18:52.759Z,684.00
2018-05-19T04:19:28.168Z,700.00
2018-05-19T04:20:03.772Z,720.00
2018-05-19T04:20:39.925Z,748.00
2018-05-19T04:21:15.548Z,772.00
2018-05-19T04:21:51.076Z,792.00
2018-05-19T04:22:26.778Z,816.00
2018-05-19T04:23:01.904Z,840.00
2018-05-19T04:23:37.171Z,860.00
2018-05-19T04:24:12.517Z,880.00
2018-05-19T04:24:48.127Z,900.00
2018-05-19T04:25:23.633Z,920.00
2018-05-19T04:25:59.990Z,936.00
2018-05-19T04:26:35.270Z,948.00
2018-05-19T04:27:10.813Z,960.00
2018-05-19T04:27:46.024Z,972.00
2018-05-19T04:28:21.493Z,984.00
2018-05-19T04:28:56.847Z,1004.00
2018-05-19T04:29:32.086Z,1020.00
2018-05-19T04:30:07.431Z,1036.00
2018-05-19T04:30:43.377Z,1060.00
2018-05-19T04:31:18.708Z,1084.00
2018-05-19T04:31:53.972Z,1108.00
2018-05-19T04:32:29.060Z,1124.00
2018-05-19T04:33:04.407Z,1144.00
2018-05-19T04:33:39.650Z,1160.00
2018-05-19T04:34:15.007Z,1184.00
2018-05-19T04:34:50.884Z,1212.00
2018-05-19T04:35:26.283Z,1232.00
2018-05-19T04:36:01.710Z,1232.00
2018-05-19T04:36:37.076Z,1220.00
2018-05-19T04:37:12.557Z,1232.00
2018-05-19T04:37:48.069Z,1236.00
2018-05-19T04:38:23.607Z,1248.00
2018-05-19T04:38:58.816Z,1272.00
2018-05-19T04:39:34.283Z,1300.00
2018-05-19T04:40:09.813Z,1328.00
2018-05-19T04:40:45.493Z,1356.00
2018-05-19T04:41:20.519Z,1384.00
2018-05-19T04:41:55.852Z,1408.00
2018-05-19T04:42:31.090Z,1440.00
2018-05-19T04:43:06.487Z,1480.00
2018-05-19T04:43:41.882Z,1520.00
2018-05-19T04:44:17.429Z,1568.00
2018-05-19T04:44:53.110Z,1620.00
2018-05-19T04:45:28.634Z,1672.00
2018-05-19T04:46:03.769Z,1712.00
2018-05-19T04:46:39.198Z,1728.00
2018-05-19T04:47:14.905Z,1744.00
2018-05-19T04:47:50.536Z,1752.00
2018-05-19T04:48:25.762Z,1760.00
2018-05-19T04:49:01.130Z,1764.00
2018-05-19T04:49:36.579Z,1772.00
2018-05-19T04:50:12.109Z,1776.00
2018-05-19T04:50:47.739Z,1768.00
2018-05-19T04:51:23.272Z,1760.00
2018-05-19T04:51:58.505Z,1768.00
2018-05-19T04:52:33.812Z,1804.00
2018-05-19T04:53:09.680Z,1840.00
2018-05-19T04:53:45.041Z,1888.00
2018-05-19T04:54:20.471Z,1936.00
2018-05-19T04:54:55.876Z,2012.00
2018-05-19T04:55:31.544Z,2124.00
2018-05-19T04:56:06.870Z,2240.00
2018-05-19T04:56:42.094Z,2324.00
2018-05-19T04:57:17.591Z,2364.00
2018-05-19T04:57:53.036Z,2352.00
2018-05-19T04:58:28.256Z,2284.00
2018-05-19T04:59:03.563Z,2200.00
2018-05-19T04:59:38.948Z,2152.00
2018-05-19T05:00:14.336Z,2116.00
2018-05-19T05:00:50.158Z,2144.00
2018-05-19T05:01:25.895Z,2212.00
2018-05-19T05:02:01.083Z,2292.00
2018-05-19T05:02:36.240Z,2380.00
2018-05-19T05:03:11.590Z,2476.00
2018-05-19T05:03:46.981Z,2540.00
2018-05-19T05:04:22.557Z,2588.00
2018-05-19T05:04:57.948Z,2612.00
2018-05-19T05:05:33.545Z,2620.00
2018-05-19T05:06:09.052Z,2652.00
2018-05-19T05:06:44.713Z,2700.00
2018-05-19T05:07:20.082Z,2784.00
2018-05-19T05:07:55.549Z,2892.00
2018-05-19T05:08:31.021Z,3032.00
2018-05-19T05:09:06.478Z,3156.00
2018-05-19T05:09:41.920Z,3276.00
2018-05-19T05:10:17.067Z,3388.00
2018-05-19T05:10:52.410Z,3304.00
2018-05-19T05:11:27.794Z,3248.00
2018-05-19T05:12:03.486Z,3164.00
2018-05-19T05:12:40.023Z,3136.00
2018-05-19T05:13:15.546Z,3168.00
2018-05-19T05:13:51.184Z,3240.00
2018-05-19T05:14:26.587Z,3336.00
2018-05-19T05:15:02.018Z,3388.00
2018-05-19T05:15:37.903Z,3428.00
2018-05-19T05:16:13.621Z,3492.00
2018-05-19T05:16:49.212Z,3572.00
2018-05-19T05:17:24.550Z,3636.00
2018-05-19T05:18:00.065Z,3680.00
2018-05-19T05:18:35.476Z,3660.00
2018-05-19T05:19:10.943Z,3656.00
2018-05-19T05:19:46.653Z,3688.00
2018-05-19T05:20:22.106Z,3732.00
2018-05-19T05:20:58.104Z,3836.00
2018-05-19T05:21:33.432Z,3856.00
2018-05-19T05:22:08.885Z,3900.00
2018-05-19T05:22:44.794Z,3928.00
2018-05-19T05:23:20.116Z,3936.00
2018-05-19T05:23:55.727Z,3892.00
2018-05-19T05:24:31.063Z,3840.00
2018-05-19T05:25:06.485Z,3808.00
2018-05-19T05:25:44.670Z,3800.00
2018-05-19T05:26:20.062Z,3820.00
2018-05-19T05:26:55.394Z,3880.00
2018-05-19T05:27:30.540Z,3956.00
2018-05-19T05:28:06.161Z,4080.00
2018-05-19T05:28:41.433Z,4188.00
2018-05-19T05:29:16.901Z,4272.00
2018-05-19T05:29:52.281Z,4344.00
2018-05-19T05:30:27.768Z,4424.00
2018-05-19T05:31:03.234Z,4488.00
2018-05-19T05:31:38.590Z,4624.00
2018-05-19T05:32:14.086Z,4888.00
2018-05-19T05:32:49.477Z,5272.00
2018-05-19T05:33:24.972Z,5376.00
2018-05-19T05:34:00.518Z,5392.00
2018-05-19T05:34:35.948Z,5348.00
2018-05-19T05:35:11.205Z,5288.00
2018-05-19T05:35:47.024Z,5284.00
2018-05-19T05:36:22.699Z,5276.00
2018-05-19T05:36:57.988Z,5288.00
2018-05-19T05:37:33.337Z,5160.00
2018-05-19T05:38:08.940Z,5032.00
2018-05-19T05:38:44.558Z,4900.00
2018-05-19T05:39:19.909Z,4868.00
2018-05-19T05:39:55.678Z,4900.00
2018-05-19T05:40:31.227Z,4916.00
2018-05-19T05:41:06.971Z,5040.00
2018-05-19T05:41:42.382Z,5208.00
2018-05-19T05:42:17.939Z,5388.00
2018-05-19T05:42:53.235Z,5540.00
2018-05-19T05:43:28.637Z,5664.00
2018-05-19T05:44:04.149Z,5768.00
2018-05-19T05:44:41.808Z,5888.00
2018-05-19T05:45:17.378Z,5920.00
2018-05-19T05:45:52.592Z,5944.00
2018-05-19T05:46:28.691Z,6000.00
2018-05-19T05:47:04.145Z,6092.00
2018-05-19T05:47:39.547Z,6108.00
2018-05-19T05:48:14.928Z,6064.00
2018-05-19T05:48:50.376Z,5968.00
2018-05-19T05:49:25.889Z,5876.00
2018-05-19T05:50:01.162Z,5760.00
2018-05-19T05:50:36.783Z,5664.00
2018-05-19T05:51:12.387Z,5656.00
2018-05-19T05:51:47.724Z,5756.00
2018-05-19T05:52:23.357Z,5788.00
2018-05-19T05:52:58.685Z,5880.00
2018-05-19T05:53:33.924Z,5968.00
2018-05-19T05:54:09.553Z,6124.00
2018-05-19T05:54:45.450Z,6048.00
2018-05-19T05:55:21.229Z,5956.00
2018-05-19T05:55:56.780Z,5892.00
2018-05-19T05:56:32.620Z,5808.00
2018-05-19T05:57:07.902Z,5764.00
2018-05-19T05:57:43.273Z,5796.00
2018-05-19T05:58:18.549Z,5868.00
2018-05-19T05:58:53.929Z,5928.00
2018-05-19T05:59:29.704Z,6064.00
2018-05-19T06:00:04.928Z,6284.00
2018-05-19T06:00:41.332Z,6488.00
2018-05-19T06:01:16.668Z,6688.00
2018-05-19T06:01:52.103Z,6744.00
2018-05-19T06:02:27.346Z,6756.00
2018-05-19T06:03:03.985Z,6844.00
2018-05-19T06:03:39.469Z,6956.00
2018-05-19T06:04:14.705Z,7016.00
2018-05-19T06:04:50.128Z,7032.00
2018-05-19T06:05:25.761Z,7012.00
2018-05-19T06:06:01.134Z,6968.00
2018-05-19T06:06:37.053Z,6920.00
2018-05-19T06:07:12.393Z,7016.00
2018-05-19T06:07:47.627Z,7176.00
2018-05-19T06:08:22.829Z,7424.00
2018-05-19T06:08:58.080Z,7688.00
2018-05-19T06:09:33.485Z,8008.00
2018-05-19T06:10:08.956Z,8468.00
2018-05-19T06:10:44.990Z,8720.00
2018-05-19T06:11:20.573Z,8848.00
2018-05-19T06:11:55.951Z,8844.00
2018-05-19T06:12:31.576Z,8888.00
2018-05-19T06:13:06.850Z,8908.00
2018-05-19T06:13:42.408Z,8976.00
2018-05-19T06:14:17.747Z,9016.00
2018-05-19T06:14:53.077Z,9072.00
2018-05-19T06:15:28.513Z,9136.00
2018-05-19T06:16:04.191Z,9420.00
2018-05-19T06:16:39.427Z,9652.00
2018-05-19T06:17:15.023Z,10000.00
2018-05-19T06:17:50.516Z,10412.00
2018-05-19T06:18:25.893Z,10636.00
2018-05-19T06:19:01.143Z,10868.00
2018-05-19T06:19:36.603Z,10752.00
2018-05-19T06:20:11.971Z,10812.00
2018-05-19T06:20:47.614Z,10884.00
2018-05-19T06:21:22.926Z,11076.00
2018-05-19T06:21:58.367Z,11292.00
2018-05-19T06:22:34.076Z,11364.00
2018-05-19T06:23:09.374Z,11484.00
2018-05-19T06:23:44.772Z,11464.00
2018-05-19T06:24:20.309Z,11640.00
2018-05-19T06:24:55.813Z,11632.00
2018-05-19T06:25:31.100Z,11432.00
2018-05-19T06:26:06.495Z,11568.00
2018-05-19T06:26:41.884Z,10884.00
2018-05-19T06:27:17.288Z,10028.00
2018-05-19T06:27:52.842Z,9984.00
2018-05-19T06:28:28.115Z,9976.00
2018-05-19T06:29:03.362Z,9988.00
2018-05-19T06:29:38.687Z,9736.00
2018-05-19T06:30:14.025Z,9584.00
2018-05-19T06:30:49.401Z,9104.00
2018-05-19T06:31:25.213Z,8764.00
2018-05-19T06:32:00.680Z,8920.00
2018-05-19T06:32:36.065Z,9236.00
2018-05-19T06:33:11.546Z,9580.00
2018-05-19T06:33:46.680Z,9568.00
2018-05-19T06:34:22.897Z,9500.00
2018-05-19T06:34:58.617Z,9240.00
2018-05-19T06:35:33.980Z,9028.00
2018-05-19T06:36:09.312Z,9032.00
2018-05-19T06:36:48.038Z,9096.00
2018-05-19T06:37:23.152Z,9112.00
2018-05-19T06:37:58.692Z,8984.00
2018-05-19T06:38:33.900Z,8640.00
2018-05-19T06:39:09.204Z,8304.00
2018-05-19T06:39:44.864Z,8240.00
2018-05-19T06:40:20.388Z,8588.00
2018-05-19T06:40:55.660Z,9208.00
2018-05-19T06:41:30.908Z,9712.00
2018-05-19T06:42:06.275Z,9888.00
2018-05-19T06:42:41.610Z,10056.00
2018-05-19T06:43:17.192Z,10288.00
2018-05-19T06:43:52.573Z,10488.00
2018-05-19T06:44:29.070Z,10856.00
2018-05-19T06:45:04.451Z,10992.00
2018-05-19T06:45:40.335Z,10888.00
2018-05-19T06:46:15.734Z,10868.00
2018-05-19T06:46:51.018Z,11132.00
2018-05-19T06:47:26.385Z,11628.00
2018-05-19T06:48:01.864Z,12112.00
2018-05-19T06:48:37.163Z,12384.00
2018-05-19T06:49:12.507Z,12532.00
2018-05-19T06:49:48.175Z,12564.00
2018-05-19T06:50:23.839Z,12460.00
2018-05-19T06:50:59.322Z,12408.00
2018-05-19T06:51:34.886Z,12152.00
2018-05-19T06:52:10.683Z,12496.00
2018-05-19T06:52:46.146Z,14428.00
2018-05-19T06:53:21.518Z,14124.00
2018-05-19T06:53:56.977Z,12916.00
2018-05-19T06:54:32.287Z,13516.00
2018-05-19T06:55:07.712Z,12784.00
2018-05-19T06:55:43.183Z,12772.00
2018-05-19T06:56:18.381Z,12392.00
2018-05-19T06:56:53.632Z,12576.00
2018-05-19T06:57:29.300Z,11252.00
2018-05-19T06:58:04.731Z,10700.00
2018-05-19T06:58:40.529Z,11044.00
2018-05-19T06:59:16.187Z,12320.00
2018-05-19T06:59:51.621Z,11880.00
2018-05-19T07:00:27.325Z,12592.00
2018-05-19T07:01:03.100Z,11816.00
2018-05-19T07:01:38.582Z,12788.00
2018-05-19T07:02:14.059Z,14528.00
2018-05-19T07:02:49.660Z,13680.00
2018-05-19T07:03:25.201Z,15300.00
2018-05-19T07:04:00.503Z,14348.00
2018-05-19T07:04:35.975Z,17120.00
2018-05-19T07:05:11.652Z,26432.00
2018-05-19T07:05:47.089Z,23520.00
2018-05-19T07:06:22.451Z,26528.00
2018-05-19T07:06:57.840Z,21536.00
2018-05-19T07:07:33.186Z,25856.00
2018-05-19T07:08:08.968Z,33216.00
2018-05-19T07:08:44.352Z,35712.00
2018-05-19T07:09:19.731Z,31712.00
2018-05-19T07:09:54.899Z,29376.00
2018-05-19T07:10:30.628Z,23616.00
2018-05-19T07:11:05.895Z,28672.00
2018-05-19T07:11:41.299Z,29696.00
2018-05-19T07:12:17.065Z,27584.00
2018-05-19T07:12:52.373Z,36544.00
2018-05-19T07:13:28.165Z,38176.00
2018-05-19T07:14:03.321Z,34272.00
2018-05-19T07:14:38.945Z,29280.00
2018-05-19T07:15:14.402Z,30112.00
2018-05-19T07:15:49.593Z,30176.00
2018-05-19T07:16:24.952Z,34080.00
2018-05-19T07:17:00.387Z,22240.00
2018-05-19T07:17:35.804Z,21408.00
2018-05-19T07:18:11.305Z,25536.00
2018-05-19T07:18:46.770Z,23360.00
2018-05-19T07:19:22.085Z,31296.00
2018-05-19T07:19:57.582Z,33952.00
2018-05-19T07:20:33.402Z,32896.00
2018-05-19T07:21:08.837Z,29792.00
2018-05-19T07:21:44.158Z,30432.00
2018-05-19T07:22:19.304Z,21024.00
2018-05-19T07:22:54.634Z,20704.00
2018-05-19T07:23:30.122Z,24768.00
2018-05-19T07:24:05.902Z,19360.00
2018-05-19T07:24:41.266Z,31872.00
2018-05-19T07:25:16.781Z,32480.00
2018-05-19T07:25:52.152Z,32096.00
2018-05-19T07:26:27.830Z,20928.00
2018-05-19T07:27:03.061Z,20192.00
2018-05-19T07:27:38.574Z,36832.00